sensor_id;sensor_type;location;lat;lon;timestamp;temperature;humidity
26687;DHT22;14298;50.900;4.648;2023-01-29T00:02:11;-3.20;97.10
26687;DHT22;14298;50.900;4.648;2023-01-29T00:04:39;-3.20;97.10
26687;DHT22;14298;50.900;4.648;2023-01-29T00:07:08;-3.20;97.10
26687;DHT22;14298;50.900;4.648;2023-01-29T00:09:36;-3.20;97.10
26687;DHT22;14298;50.900;4.648;2023-01-29T00:12:05;-3.20;97.10
26687;DHT22;14298;50.900;4.648;2023-01-29T00:14:35;-3.30;97.10
26687;DHT22;14298;50.900;4.648;2023-01-29T00:17:03;-3.30;97.10
26687;DHT22;14298;50.900;4.648;2023-01-29T00:19:31;-3.20;97.10
26687;DHT22;14298;50.900;4.648;2023-01-29T00:22:00;-3.30;97.10
26687;DHT22;14298;50.900;4.648;2023-01-29T00:24:29;-3.30;97.10
26687;DHT22;14298;50.900;4.648;2023-01-29T00:26:57;-3.30;97.10
26687;DHT22;14298;50.900;4.648;2023-01-29T00:29:25;-3.30;97.10
26687;DHT22;14298;50.900;4.648;2023-01-29T00:31:53;-3.30;97.10
26687;DHT22;14298;50.900;4.648;2023-01-29T00:34:22;-3.20;97.10
26687;DHT22;14298;50.900;4.648;2023-01-29T00:36:50;-3.20;97.10
26687;DHT22;14298;50.900;4.648;2023-01-29T00:39:19;-3.30;97.10
26687;DHT22;14298;50.900;4.648;2023-01-29T00:41:48;-3.30;97.10
26687;DHT22;14298;50.900;4.648;2023-01-29T00:44:54;-3.30;97.10
26687;DHT22;14298;50.900;4.648;2023-01-29T00:47:25;-3.30;97.10
26687;DHT22;14298;50.900;4.648;2023-01-29T00:50:01;-3.20;97.10
26687;DHT22;14298;50.900;4.648;2023-01-29T00:52:30;-3.20;97.10
26687;DHT22;14298;50.900;4.648;2023-01-29T00:54:59;-3.20;97.10
26687;DHT22;14298;50.900;4.648;2023-01-29T00:57:29;-3.30;97.10
26687;DHT22;14298;50.900;4.648;2023-01-29T00:59:58;-3.30;97.10
26687;DHT22;14298;50.900;4.648;2023-01-29T01:02:27;-3.20;97.10
26687;DHT22;14298;50.900;4.648;2023-01-29T01:05:15;-3.10;97.10
26687;DHT22;14298;50.900;4.648;2023-01-29T01:07:50;-3.20;97.10
26687;DHT22;14298;50.900;4.648;2023-01-29T01:13:07;-3.30;97.10
26687;DHT22;14298;50.900;4.648;2023-01-29T01:15:38;-3.40;97.10
26687;DHT22;14298;50.900;4.648;2023-01-29T01:18:07;-3.40;97.10
26687;DHT22;14298;50.900;4.648;2023-01-29T01:20:57;-3.40;97.10
26687;DHT22;14298;50.900;4.648;2023-01-29T01:23:26;-3.40;97.10
26687;DHT22;14298;50.900;4.648;2023-01-29T01:25:54;-3.40;97.10
26687;DHT22;14298;50.900;4.648;2023-01-29T01:28:22;-3.50;97.10
26687;DHT22;14298;50.900;4.648;2023-01-29T01:30:51;-3.50;97.10
26687;DHT22;14298;50.900;4.648;2023-01-29T01:33:19;-3.50;97.10
26687;DHT22;14298;50.900;4.648;2023-01-29T01:35:47;-3.50;97.10
26687;DHT22;14298;50.900;4.648;2023-01-29T01:38:16;-3.50;97.10
26687;DHT22;14298;50.900;4.648;2023-01-29T01:40:45;-3.50;97.10
26687;DHT22;14298;50.900;4.648;2023-01-29T01:43:13;-3.50;97.10
26687;DHT22;14298;50.900;4.648;2023-01-29T01:45:42;-3.50;97.10
26687;DHT22;14298;50.900;4.648;2023-01-29T01:48:14;-3.50;97.10
26687;DHT22;14298;50.900;4.648;2023-01-29T01:50:49;-3.50;97.10
26687;DHT22;14298;50.900;4.648;2023-01-29T01:53:39;-3.50;97.10
26687;DHT22;14298;50.900;4.648;2023-01-29T01:56:13;-3.50;97.10
26687;DHT22;14298;50.900;4.648;2023-01-29T01:58:49;-3.60;97.10
26687;DHT22;14298;50.900;4.648;2023-01-29T02:01:13;-3.60;97.10
26687;DHT22;14298;50.900;4.648;2023-01-29T02:03:51;-3.60;97.10
26687;DHT22;14298;50.900;4.648;2023-01-29T02:06:38;-3.60;97.10
26687;DHT22;14298;50.900;4.648;2023-01-29T02:09:52;-3.70;97.10
26687;DHT22;14298;50.900;4.648;2023-01-29T02:12:21;-3.70;97.10
26687;DHT22;14298;50.900;4.648;2023-01-29T02:14:50;-3.60;97.10
26687;DHT22;14298;50.900;4.648;2023-01-29T02:17:19;-3.50;97.10
26687;DHT22;14298;50.900;4.648;2023-01-29T02:28:39;-3.60;97.10
26687;DHT22;14298;50.900;4.648;2023-01-29T02:34:15;-3.60;97.10
26687;DHT22;14298;50.900;4.648;2023-01-29T02:36:59;-3.60;97.10
26687;DHT22;14298;50.900;4.648;2023-01-29T02:39:32;-3.60;97.10
26687;DHT22;14298;50.900;4.648;2023-01-29T02:45:16;-3.70;97.10
26687;DHT22;14298;50.900;4.648;2023-01-29T02:47:50;-3.80;97.10
26687;DHT22;14298;50.900;4.648;2023-01-29T02:51:05;-3.80;97.10
26687;DHT22;14298;50.900;4.648;2023-01-29T02:53:07;-3.80;97.10
26687;DHT22;14298;50.900;4.648;2023-01-29T02:55:51;-3.80;97.10
26687;DHT22;14298;50.900;4.648;2023-01-29T03:00:59;-3.70;97.10
26687;DHT22;14298;50.900;4.648;2023-01-29T03:06:31;-3.70;97.10
26687;DHT22;14298;50.900;4.648;2023-01-29T03:09:05;-3.70;97.10
26687;DHT22;14298;50.900;4.648;2023-01-29T03:11:55;-3.70;97.10
26687;DHT22;14298;50.900;4.648;2023-01-29T03:14:29;-3.70;97.10
26687;DHT22;14298;50.900;4.648;2023-01-29T03:16:59;-3.80;97.10
26687;DHT22;14298;50.900;4.648;2023-01-29T03:19:35;-3.90;97.10
26687;DHT22;14298;50.900;4.648;2023-01-29T03:22:05;-3.80;97.10
26687;DHT22;14298;50.900;4.648;2023-01-29T03:24:57;-3.80;97.10
26687;DHT22;14298;50.900;4.648;2023-01-29T03:27:53;-3.90;97.10
26687;DHT22;14298;50.900;4.648;2023-01-29T03:30:49;-3.90;97.10
26687;DHT22;14298;50.900;4.648;2023-01-29T03:33:34;-4.00;97.10
26687;DHT22;14298;50.900;4.648;2023-01-29T03:36:08;-4.00;97.10
26687;DHT22;14298;50.900;4.648;2023-01-29T03:38:53;-4.00;97.10
26687;DHT22;14298;50.900;4.648;2023-01-29T03:41:24;-4.00;97.10
26687;DHT22;14298;50.900;4.648;2023-01-29T03:44:17;-3.90;97.10
26687;DHT22;14298;50.900;4.648;2023-01-29T03:46:56;-3.80;97.10
26687;DHT22;14298;50.900;4.648;2023-01-29T03:49:43;-3.80;97.10
26687;DHT22;14298;50.900;4.648;2023-01-29T03:52:42;-3.80;97.10
26687;DHT22;14298;50.900;4.648;2023-01-29T03:58:08;-3.80;97.10
26687;DHT22;14298;50.900;4.648;2023-01-29T04:00:40;-3.80;97.10
26687;DHT22;14298;50.900;4.648;2023-01-29T04:03:20;-3.70;97.10
26687;DHT22;14298;50.900;4.648;2023-01-29T04:05:52;-3.70;97.10
26687;DHT22;14298;50.900;4.648;2023-01-29T04:08:25;-3.70;97.10
26687;DHT22;14298;50.900;4.648;2023-01-29T04:10:55;-3.70;97.10
26687;DHT22;14298;50.900;4.648;2023-01-29T04:13:24;-3.70;97.10
26687;DHT22;14298;50.900;4.648;2023-01-29T04:15:56;-3.70;97.10
26687;DHT22;14298;50.900;4.648;2023-01-29T04:18:25;-3.70;97.10
26687;DHT22;14298;50.900;4.648;2023-01-29T04:20:54;-3.70;97.10
26687;DHT22;14298;50.900;4.648;2023-01-29T04:23:24;-3.70;97.10
26687;DHT22;14298;50.900;4.648;2023-01-29T04:34:58;-3.80;97.10
26687;DHT22;14298;50.900;4.648;2023-01-29T04:37:36;-3.80;97.10
26687;DHT22;14298;50.900;4.648;2023-01-29T04:43:07;-3.60;97.10
26687;DHT22;14298;50.900;4.648;2023-01-29T04:45:53;-3.40;97.10
26687;DHT22;14298;50.900;4.648;2023-01-29T04:48:21;-3.40;97.10
26687;DHT22;14298;50.900;4.648;2023-01-29T04:50:57;-3.30;97.10
26687;DHT22;14298;50.900;4.648;2023-01-29T04:56:08;-3.10;97.10
26687;DHT22;14298;50.900;4.648;2023-01-29T04:58:39;-3.00;97.10
26687;DHT22;14298;50.900;4.648;2023-01-29T05:01:11;-2.80;97.10
26687;DHT22;14298;50.900;4.648;2023-01-29T05:04:00;-2.70;97.10
26687;DHT22;14298;50.900;4.648;2023-01-29T05:06:30;-2.50;97.10
26687;DHT22;14298;50.900;4.648;2023-01-29T05:09:01;-2.40;97.10
26687;DHT22;14298;50.900;4.648;2023-01-29T05:11:32;-2.40;97.10
26687;DHT22;14298;50.900;4.648;2023-01-29T05:14:03;-2.30;97.10
26687;DHT22;14298;50.900;4.648;2023-01-29T05:16:37;-2.20;97.10
26687;DHT22;14298;50.900;4.648;2023-01-29T05:19:06;-2.10;97.10
26687;DHT22;14298;50.900;4.648;2023-01-29T05:21:34;-2.10;97.10
26687;DHT22;14298;50.900;4.648;2023-01-29T05:24:13;-2.00;97.10
26687;DHT22;14298;50.900;4.648;2023-01-29T05:26:37;-1.90;97.10
26687;DHT22;14298;50.900;4.648;2023-01-29T05:29:23;-1.80;97.10
26687;DHT22;14298;50.900;4.648;2023-01-29T05:31:52;-1.70;97.10
26687;DHT22;14298;50.900;4.648;2023-01-29T05:34:20;-1.60;97.10
26687;DHT22;14298;50.900;4.648;2023-01-29T05:36:49;-1.50;97.10
26687;DHT22;14298;50.900;4.648;2023-01-29T05:39:17;-1.40;97.10
26687;DHT22;14298;50.900;4.648;2023-01-29T05:41:46;-1.30;97.10
26687;DHT22;14298;50.900;4.648;2023-01-29T05:44:14;-1.20;97.10
26687;DHT22;14298;50.900;4.648;2023-01-29T05:46:42;-1.10;97.10
26687;DHT22;14298;50.900;4.648;2023-01-29T05:49:11;-1.10;97.10
26687;DHT22;14298;50.900;4.648;2023-01-29T05:51:39;-1.10;97.10
26687;DHT22;14298;50.900;4.648;2023-01-29T05:54:10;-1.00;97.10
26687;DHT22;14298;50.900;4.648;2023-01-29T05:56:39;-1.00;97.10
26687;DHT22;14298;50.900;4.648;2023-01-29T05:59:07;-1.10;97.10
26687;DHT22;14298;50.900;4.648;2023-01-29T06:01:36;-1.00;97.10
26687;DHT22;14298;50.900;4.648;2023-01-29T06:04:04;-0.90;97.10
26687;DHT22;14298;50.900;4.648;2023-01-29T06:06:32;-0.80;97.10
26687;DHT22;14298;50.900;4.648;2023-01-29T06:09:01;-0.80;97.10
26687;DHT22;14298;50.900;4.648;2023-01-29T06:11:29;-0.80;97.10
26687;DHT22;14298;50.900;4.648;2023-01-29T06:13:57;-0.80;97.10
26687;DHT22;14298;50.900;4.648;2023-01-29T06:16:26;-0.80;97.10
26687;DHT22;14298;50.900;4.648;2023-01-29T06:18:54;-0.80;97.10
26687;DHT22;14298;50.900;4.648;2023-01-29T06:21:23;-0.70;97.10
26687;DHT22;14298;50.900;4.648;2023-01-29T06:23:54;-0.70;97.10
26687;DHT22;14298;50.900;4.648;2023-01-29T06:26:22;-0.70;97.10
26687;DHT22;14298;50.900;4.648;2023-01-29T06:28:51;-0.60;97.10
26687;DHT22;14298;50.900;4.648;2023-01-29T06:31:19;-0.50;97.10
26687;DHT22;14298;50.900;4.648;2023-01-29T06:33:47;-0.40;97.10
26687;DHT22;14298;50.900;4.648;2023-01-29T06:36:16;-0.50;97.10
26687;DHT22;14298;50.900;4.648;2023-01-29T06:38:44;-0.50;97.10
26687;DHT22;14298;50.900;4.648;2023-01-29T06:41:15;-0.40;97.10
26687;DHT22;14298;50.900;4.648;2023-01-29T06:43:45;-0.50;97.10
26687;DHT22;14298;50.900;4.648;2023-01-29T06:46:33;-0.50;97.10
26687;DHT22;14298;50.900;4.648;2023-01-29T06:49:02;-0.40;97.10
26687;DHT22;14298;50.900;4.648;2023-01-29T06:51:30;-0.40;97.10
26687;DHT22;14298;50.900;4.648;2023-01-29T06:53:58;-0.40;97.10
26687;DHT22;14298;50.900;4.648;2023-01-29T06:56:27;-0.40;97.10
26687;DHT22;14298;50.900;4.648;2023-01-29T06:58:55;-0.30;97.10
26687;DHT22;14298;50.900;4.648;2023-01-29T07:01:23;-0.30;97.10
26687;DHT22;14298;50.900;4.648;2023-01-29T07:03:52;-0.20;97.10
26687;DHT22;14298;50.900;4.648;2023-01-29T07:06:20;-0.20;97.10
26687;DHT22;14298;50.900;4.648;2023-01-29T07:08:50;-0.20;97.10
26687;DHT22;14298;50.900;4.648;2023-01-29T07:11:18;-0.20;97.10
26687;DHT22;14298;50.900;4.648;2023-01-29T07:13:47;-0.20;97.10
26687;DHT22;14298;50.900;4.648;2023-01-29T07:16:15;-0.20;97.10
26687;DHT22;14298;50.900;4.648;2023-01-29T07:18:45;-0.10;97.10
26687;DHT22;14298;50.900;4.648;2023-01-29T07:21:13;-0.10;97.10
26687;DHT22;14298;50.900;4.648;2023-01-29T07:23:42;-0.10;97.10
26687;DHT22;14298;50.900;4.648;2023-01-29T07:26:10;-0.20;97.10
26687;DHT22;14298;50.900;4.648;2023-01-29T07:28:39;-0.20;97.10
26687;DHT22;14298;50.900;4.648;2023-01-29T07:31:10;-0.20;97.10
26687;DHT22;14298;50.900;4.648;2023-01-29T07:33:39;-0.20;97.10
26687;DHT22;14298;50.900;4.648;2023-01-29T07:36:10;-0.30;97.10
26687;DHT22;14298;50.900;4.648;2023-01-29T07:38:39;-0.30;97.10
26687;DHT22;14298;50.900;4.648;2023-01-29T07:41:09;-0.30;97.10
26687;DHT22;14298;50.900;4.648;2023-01-29T07:43:38;-0.30;97.10
26687;DHT22;14298;50.900;4.648;2023-01-29T07:46:07;-0.30;97.10
26687;DHT22;14298;50.900;4.648;2023-01-29T07:48:35;-0.30;97.10
26687;DHT22;14298;50.900;4.648;2023-01-29T07:51:05;-0.30;97.10
26687;DHT22;14298;50.900;4.648;2023-01-29T07:53:34;-0.30;97.10
26687;DHT22;14298;50.900;4.648;2023-01-29T07:56:04;-0.30;97.10
26687;DHT22;14298;50.900;4.648;2023-01-29T07:58:33;-0.30;97.10
26687;DHT22;14298;50.900;4.648;2023-01-29T08:01:06;-0.40;97.10
26687;DHT22;14298;50.900;4.648;2023-01-29T08:03:34;-0.30;97.10
26687;DHT22;14298;50.900;4.648;2023-01-29T08:06:03;-0.20;97.10
26687;DHT22;14298;50.900;4.648;2023-01-29T08:08:51;-0.10;97.10
26687;DHT22;14298;50.900;4.648;2023-01-29T08:11:21;-0.10;97.10
26687;DHT22;14298;50.900;4.648;2023-01-29T08:13:50;-0.10;97.10
26687;DHT22;14298;50.900;4.648;2023-01-29T08:16:18;-0.10;97.10
26687;DHT22;14298;50.900;4.648;2023-01-29T08:18:47;-0.10;97.10
26687;DHT22;14298;50.900;4.648;2023-01-29T08:21:15;0.00;97.10
26687;DHT22;14298;50.900;4.648;2023-01-29T08:23:44;0.00;97.10
26687;DHT22;14298;50.900;4.648;2023-01-29T08:26:12;0.00;97.10
26687;DHT22;14298;50.900;4.648;2023-01-29T08:28:40;0.00;97.10
26687;DHT22;14298;50.900;4.648;2023-01-29T08:31:15;-0.10;97.10
26687;DHT22;14298;50.900;4.648;2023-01-29T08:33:44;-0.10;97.10
26687;DHT22;14298;50.900;4.648;2023-01-29T08:36:12;-0.10;97.10
26687;DHT22;14298;50.900;4.648;2023-01-29T08:38:41;0.00;97.10
26687;DHT22;14298;50.900;4.648;2023-01-29T08:41:09;0.00;97.10
26687;DHT22;14298;50.900;4.648;2023-01-29T08:43:37;0.00;97.10
26687;DHT22;14298;50.900;4.648;2023-01-29T08:46:07;0.10;97.10
26687;DHT22;14298;50.900;4.648;2023-01-29T08:48:35;0.20;97.10
26687;DHT22;14298;50.900;4.648;2023-01-29T08:51:04;0.20;97.10
26687;DHT22;14298;50.900;4.648;2023-01-29T08:53:32;0.20;97.10
26687;DHT22;14298;50.900;4.648;2023-01-29T08:56:01;0.30;97.10
26687;DHT22;14298;50.900;4.648;2023-01-29T08:58:29;0.30;97.10
26687;DHT22;14298;50.900;4.648;2023-01-29T09:01:09;0.30;97.10
26687;DHT22;14298;50.900;4.648;2023-01-29T09:03:37;0.40;97.10
26687;DHT22;14298;50.900;4.648;2023-01-29T09:06:09;0.40;97.10
26687;DHT22;14298;50.900;4.648;2023-01-29T09:08:38;0.50;97.10
26687;DHT22;14298;50.900;4.648;2023-01-29T09:11:06;0.50;97.10
26687;DHT22;14298;50.900;4.648;2023-01-29T09:13:35;0.60;97.10
26687;DHT22;14298;50.900;4.648;2023-01-29T09:16:04;0.70;97.10
26687;DHT22;14298;50.900;4.648;2023-01-29T09:18:32;0.80;97.10
26687;DHT22;14298;50.900;4.648;2023-01-29T09:21:01;0.90;97.10
26687;DHT22;14298;50.900;4.648;2023-01-29T09:23:29;0.90;97.10
26687;DHT22;14298;50.900;4.648;2023-01-29T09:25:58;0.90;97.10
26687;DHT22;14298;50.900;4.648;2023-01-29T09:28:27;0.90;97.10
26687;DHT22;14298;50.900;4.648;2023-01-29T09:30:55;0.90;97.10
26687;DHT22;14298;50.900;4.648;2023-01-29T09:33:24;1.00;97.10
26687;DHT22;14298;50.900;4.648;2023-01-29T09:35:52;1.00;97.10
26687;DHT22;14298;50.900;4.648;2023-01-29T09:38:20;1.00;97.10
26687;DHT22;14298;50.900;4.648;2023-01-29T09:46:24;1.20;97.10
26687;DHT22;14298;50.900;4.648;2023-01-29T09:48:59;1.20;97.10
26687;DHT22;14298;50.900;4.648;2023-01-29T09:51:33;1.20;97.10
26687;DHT22;14298;50.900;4.648;2023-01-29T09:54:22;1.20;97.10
26687;DHT22;14298;50.900;4.648;2023-01-29T09:56:54;1.20;97.10
26687;DHT22;14298;50.900;4.648;2023-01-29T09:59:28;1.20;97.10
26687;DHT22;14298;50.900;4.648;2023-01-29T10:10:49;1.40;97.10
26687;DHT22;14298;50.900;4.648;2023-01-29T10:13:31;1.40;97.10
26687;DHT22;14298;50.900;4.648;2023-01-29T10:16:26;1.40;97.10
26687;DHT22;14298;50.900;4.648;2023-01-29T10:18:55;1.40;97.10
26687;DHT22;14298;50.900;4.648;2023-01-29T10:24:16;1.50;97.10
26687;DHT22;14298;50.900;4.648;2023-01-29T10:26:41;1.60;97.10
26687;DHT22;14298;50.900;4.648;2023-01-29T10:29:13;1.60;97.10
26687;DHT22;14298;50.900;4.648;2023-01-29T10:31:42;1.60;97.10
26687;DHT22;14298;50.900;4.648;2023-01-29T10:34:24;1.60;97.10
26687;DHT22;14298;50.900;4.648;2023-01-29T10:36:54;1.70;97.10
26687;DHT22;14298;50.900;4.648;2023-01-29T10:39:25;1.80;97.10
26687;DHT22;14298;50.900;4.648;2023-01-29T10:42:20;1.80;97.10
26687;DHT22;14298;50.900;4.648;2023-01-29T10:44:52;1.80;97.10
26687;DHT22;14298;50.900;4.648;2023-01-29T10:47:33;1.80;97.10
26687;DHT22;14298;50.900;4.648;2023-01-29T10:50:13;1.80;97.10
26687;DHT22;14298;50.900;4.648;2023-01-29T10:53:04;1.80;97.10
26687;DHT22;14298;50.900;4.648;2023-01-29T10:55:51;1.90;97.10
26687;DHT22;14298;50.900;4.648;2023-01-29T11:01:17;1.90;97.10
26687;DHT22;14298;50.900;4.648;2023-01-29T11:03:46;1.90;97.10
26687;DHT22;14298;50.900;4.648;2023-01-29T11:06:35;1.90;97.10
26687;DHT22;14298;50.900;4.648;2023-01-29T11:11:46;2.10;97.10
26687;DHT22;14298;50.900;4.648;2023-01-29T11:14:20;2.10;97.10
26687;DHT22;14298;50.900;4.648;2023-01-29T11:16:49;2.10;97.10
26687;DHT22;14298;50.900;4.648;2023-01-29T11:19:35;2.20;97.10
26687;DHT22;14298;50.900;4.648;2023-01-29T11:21:52;2.20;97.10
26687;DHT22;14298;50.900;4.648;2023-01-29T11:24:20;2.30;97.10
26687;DHT22;14298;50.900;4.648;2023-01-29T11:26:50;2.30;97.10
26687;DHT22;14298;50.900;4.648;2023-01-29T11:32:24;2.50;97.10
26687;DHT22;14298;50.900;4.648;2023-01-29T11:35:01;2.50;97.10
26687;DHT22;14298;50.900;4.648;2023-01-29T11:37:35;2.50;97.10
26687;DHT22;14298;50.900;4.648;2023-01-29T11:40:31;2.60;97.10
26687;DHT22;14298;50.900;4.648;2023-01-29T11:43:10;2.60;97.10
26687;DHT22;14298;50.900;4.648;2023-01-29T11:45:29;2.60;97.10
26687;DHT22;14298;50.900;4.648;2023-01-29T11:48:19;2.60;97.10
26687;DHT22;14298;50.900;4.648;2023-01-29T11:50:56;2.70;97.10
26687;DHT22;14298;50.900;4.648;2023-01-29T11:53:38;2.70;97.10
26687;DHT22;14298;50.900;4.648;2023-01-29T11:56:31;2.80;97.10
26687;DHT22;14298;50.900;4.648;2023-01-29T11:58:53;2.80;97.10
26687;DHT22;14298;50.900;4.648;2023-01-29T12:01:35;2.90;97.10
26687;DHT22;14298;50.900;4.648;2023-01-29T12:03:54;2.90;97.10
26687;DHT22;14298;50.900;4.648;2023-01-29T12:06:33;3.00;97.10
26687;DHT22;14298;50.900;4.648;2023-01-29T12:08:55;3.10;97.10
26687;DHT22;14298;50.900;4.648;2023-01-29T12:11:30;3.20;97.10
26687;DHT22;14298;50.900;4.648;2023-01-29T12:14:01;3.30;97.10
26687;DHT22;14298;50.900;4.648;2023-01-29T12:16:39;3.40;97.10
26687;DHT22;14298;50.900;4.648;2023-01-29T12:20:09;3.50;97.10
26687;DHT22;14298;50.900;4.648;2023-01-29T12:22:13;3.50;97.10
26687;DHT22;14298;50.900;4.648;2023-01-29T12:24:47;3.60;97.10
26687;DHT22;14298;50.900;4.648;2023-01-29T12:27:28;3.60;97.10
26687;DHT22;14298;50.900;4.648;2023-01-29T12:30:11;3.70;97.10
26687;DHT22;14298;50.900;4.648;2023-01-29T12:35:50;3.70;97.10
26687;DHT22;14298;50.900;4.648;2023-01-29T12:38:23;3.80;97.10
26687;DHT22;14298;50.900;4.648;2023-01-29T12:40:58;3.80;97.10
26687;DHT22;14298;50.900;4.648;2023-01-29T12:43:36;4.00;97.10
26687;DHT22;14298;50.900;4.648;2023-01-29T12:46:25;4.10;97.10
26687;DHT22;14298;50.900;4.648;2023-01-29T12:48:55;4.10;97.10
26687;DHT22;14298;50.900;4.648;2023-01-29T12:51:30;4.10;97.10
26687;DHT22;14298;50.900;4.648;2023-01-29T12:54:13;4.10;97.10
26687;DHT22;14298;50.900;4.648;2023-01-29T12:56:38;4.00;97.10
26687;DHT22;14298;50.900;4.648;2023-01-29T12:59:20;4.10;97.10
26687;DHT22;14298;50.900;4.648;2023-01-29T13:01:55;4.10;97.10
26687;DHT22;14298;50.900;4.648;2023-01-29T13:04:34;4.10;97.10
26687;DHT22;14298;50.900;4.648;2023-01-29T13:07:08;4.00;97.10
26687;DHT22;14298;50.900;4.648;2023-01-29T13:09:36;4.00;97.10
26687;DHT22;14298;50.900;4.648;2023-01-29T13:12:14;4.00;97.10
26687;DHT22;14298;50.900;4.648;2023-01-29T13:14:55;4.00;97.10
26687;DHT22;14298;50.900;4.648;2023-01-29T13:17:32;4.10;97.10
26687;DHT22;14298;50.900;4.648;2023-01-29T13:20:17;4.20;97.10
26687;DHT22;14298;50.900;4.648;2023-01-29T13:22:43;4.20;97.10
26687;DHT22;14298;50.900;4.648;2023-01-29T13:25:18;4.20;97.10
26687;DHT22;14298;50.900;4.648;2023-01-29T13:27:48;4.30;97.10
26687;DHT22;14298;50.900;4.648;2023-01-29T13:30:24;4.20;97.10
26687;DHT22;14298;50.900;4.648;2023-01-29T13:32:54;4.20;97.10
26687;DHT22;14298;50.900;4.648;2023-01-29T13:35:25;4.30;97.10
26687;DHT22;14298;50.900;4.648;2023-01-29T13:37:54;4.30;97.10
26687;DHT22;14298;50.900;4.648;2023-01-29T13:40:27;4.30;97.10
26687;DHT22;14298;50.900;4.648;2023-01-29T13:42:56;4.40;97.10
26687;DHT22;14298;50.900;4.648;2023-01-29T13:45:30;4.40;97.10
26687;DHT22;14298;50.900;4.648;2023-01-29T13:48:08;4.40;97.10
26687;DHT22;14298;50.900;4.648;2023-01-29T13:50:38;4.40;97.10
26687;DHT22;14298;50.900;4.648;2023-01-29T13:53:17;4.20;97.10
26687;DHT22;14298;50.900;4.648;2023-01-29T13:55:40;4.30;97.10
26687;DHT22;14298;50.900;4.648;2023-01-29T13:58:16;4.30;97.10
26687;DHT22;14298;50.900;4.648;2023-01-29T14:00:47;4.20;97.10
26687;DHT22;14298;50.900;4.648;2023-01-29T14:06:00;4.20;97.10
26687;DHT22;14298;50.900;4.648;2023-01-29T14:13:45;4.30;97.10
26687;DHT22;14298;50.900;4.648;2023-01-29T14:18:55;4.20;97.10
26687;DHT22;14298;50.900;4.648;2023-01-29T14:21:25;4.20;97.10
26687;DHT22;14298;50.900;4.648;2023-01-29T14:23:58;4.20;97.10
26687;DHT22;14298;50.900;4.648;2023-01-29T14:26:42;4.10;97.10
26687;DHT22;14298;50.900;4.648;2023-01-29T14:29:22;4.20;97.10
26687;DHT22;14298;50.900;4.648;2023-01-29T14:32:08;4.20;97.10
26687;DHT22;14298;50.900;4.648;2023-01-29T14:39:49;4.10;97.10
26687;DHT22;14298;50.900;4.648;2023-01-29T14:42:25;4.10;97.10
26687;DHT22;14298;50.900;4.648;2023-01-29T14:53:08;4.10;97.10
26687;DHT22;14298;50.900;4.648;2023-01-29T14:55:44;4.10;97.10
26687;DHT22;14298;50.900;4.648;2023-01-29T14:58:20;4.00;97.10
26687;DHT22;14298;50.900;4.648;2023-01-29T15:00:52;4.10;97.10
26687;DHT22;14298;50.900;4.648;2023-01-29T15:03:34;4.00;97.10
26687;DHT22;14298;50.900;4.648;2023-01-29T15:05:59;4.10;97.10
26687;DHT22;14298;50.900;4.648;2023-01-29T15:11:39;4.10;97.10
26687;DHT22;14298;50.900;4.648;2023-01-29T15:14:23;4.10;97.10
26687;DHT22;14298;50.900;4.648;2023-01-29T15:16:55;4.10;97.10
26687;DHT22;14298;50.900;4.648;2023-01-29T15:19:46;4.10;97.10
26687;DHT22;14298;50.900;4.648;2023-01-29T15:22:05;4.10;97.10
26687;DHT22;14298;50.900;4.648;2023-01-29T15:24:36;4.10;97.10
26687;DHT22;14298;50.900;4.648;2023-01-29T15:27:14;4.10;97.10
26687;DHT22;14298;50.900;4.648;2023-01-29T15:29:41;4.10;97.10
26687;DHT22;14298;50.900;4.648;2023-01-29T15:32:13;4.10;97.10
26687;DHT22;14298;50.900;4.648;2023-01-29T15:34:43;4.00;97.10
26687;DHT22;14298;50.900;4.648;2023-01-29T15:37:31;4.00;97.10
26687;DHT22;14298;50.900;4.648;2023-01-29T15:40:00;4.10;97.10
26687;DHT22;14298;50.900;4.648;2023-01-29T15:42:40;4.10;97.10
26687;DHT22;14298;50.900;4.648;2023-01-29T15:45:02;4.10;97.10
26687;DHT22;14298;50.900;4.648;2023-01-29T15:47:31;4.10;97.10
26687;DHT22;14298;50.900;4.648;2023-01-29T15:50:00;4.10;97.10
26687;DHT22;14298;50.900;4.648;2023-01-29T15:52:29;4.00;97.10
26687;DHT22;14298;50.900;4.648;2023-01-29T15:55:05;4.00;97.10
26687;DHT22;14298;50.900;4.648;2023-01-29T15:57:54;4.00;97.10
26687;DHT22;14298;50.900;4.648;2023-01-29T16:00:25;3.90;97.10
26687;DHT22;14298;50.900;4.648;2023-01-29T16:02:56;3.90;97.10
26687;DHT22;14298;50.900;4.648;2023-01-29T16:05:29;3.90;97.10
26687;DHT22;14298;50.900;4.648;2023-01-29T16:07:59;3.90;97.10
26687;DHT22;14298;50.900;4.648;2023-01-29T16:10:29;3.90;97.10
26687;DHT22;14298;50.900;4.648;2023-01-29T16:12:59;3.90;97.10
26687;DHT22;14298;50.900;4.648;2023-01-29T16:15:32;3.90;97.10
26687;DHT22;14298;50.900;4.648;2023-01-29T16:18:19;3.90;97.10
26687;DHT22;14298;50.900;4.648;2023-01-29T16:20:53;3.90;97.10
26687;DHT22;14298;50.900;4.648;2023-01-29T16:23:24;3.80;97.10
26687;DHT22;14298;50.900;4.648;2023-01-29T16:25:55;3.70;97.10
26687;DHT22;14298;50.900;4.648;2023-01-29T16:28:25;3.70;97.10
26687;DHT22;14298;50.900;4.648;2023-01-29T16:30:56;3.70;97.10
26687;DHT22;14298;50.900;4.648;2023-01-29T16:33:34;3.70;97.10
26687;DHT22;14298;50.900;4.648;2023-01-29T16:36:07;3.70;97.10
26687;DHT22;14298;50.900;4.648;2023-01-29T16:38:35;3.60;97.10
26687;DHT22;14298;50.900;4.648;2023-01-29T16:41:26;3.60;97.10
26687;DHT22;14298;50.900;4.648;2023-01-29T16:43:49;3.60;97.10
26687;DHT22;14298;50.900;4.648;2023-01-29T16:46:33;3.60;97.10
26687;DHT22;14298;50.900;4.648;2023-01-29T16:49:39;3.60;97.10
26687;DHT22;14298;50.900;4.648;2023-01-29T16:51:38;3.60;97.10
26687;DHT22;14298;50.900;4.648;2023-01-29T16:54:13;3.60;97.10
26687;DHT22;14298;50.900;4.648;2023-01-29T16:56:50;3.60;97.10
26687;DHT22;14298;50.900;4.648;2023-01-29T16:59:31;3.60;97.10
26687;DHT22;14298;50.900;4.648;2023-01-29T17:01:51;3.60;97.10
26687;DHT22;14298;50.900;4.648;2023-01-29T17:04:21;3.60;97.10
26687;DHT22;14298;50.900;4.648;2023-01-29T17:06:58;3.60;97.10
26687;DHT22;14298;50.900;4.648;2023-01-29T17:09:34;3.60;97.10
26687;DHT22;14298;50.900;4.648;2023-01-29T17:12:25;3.50;97.10
26687;DHT22;14298;50.900;4.648;2023-01-29T17:14:56;3.50;97.10
26687;DHT22;14298;50.900;4.648;2023-01-29T17:17:30;3.50;97.10
26687;DHT22;14298;50.900;4.648;2023-01-29T17:22:50;3.50;97.10
26687;DHT22;14298;50.900;4.648;2023-01-29T17:25:21;3.40;97.10
26687;DHT22;14298;50.900;4.648;2023-01-29T17:27:50;3.40;97.10
26687;DHT22;14298;50.900;4.648;2023-01-29T17:30:23;3.40;97.10
26687;DHT22;14298;50.900;4.648;2023-01-29T17:32:54;3.40;97.10
26687;DHT22;14298;50.900;4.648;2023-01-29T17:35:23;3.40;97.10
26687;DHT22;14298;50.900;4.648;2023-01-29T17:37:51;3.40;97.10
26687;DHT22;14298;50.900;4.648;2023-01-29T17:40:33;3.40;97.10
26687;DHT22;14298;50.900;4.648;2023-01-29T17:43:02;3.40;97.10
26687;DHT22;14298;50.900;4.648;2023-01-29T17:45:31;3.40;97.10
26687;DHT22;14298;50.900;4.648;2023-01-29T17:47:59;3.40;97.10
26687;DHT22;14298;50.900;4.648;2023-01-29T17:50:29;3.40;97.10
26687;DHT22;14298;50.900;4.648;2023-01-29T17:52:58;3.40;97.10
26687;DHT22;14298;50.900;4.648;2023-01-29T17:55:27;3.40;97.10
26687;DHT22;14298;50.900;4.648;2023-01-29T17:58:14;3.40;97.10